AWQ860 WIII-WATO
Flight info
| Callsign | AWQ860 |
|---|---|
| Flight time | N/A |
| Altitude | 34000 |
| Route | CA T3 BA T19 TEPOS DCT HUMAI |
| Aircraft | A320/M-SDE3FGHIRWY/LB1 |
Departure
| Time | N/A |
|---|---|
| Airport | Soekarno-Hatta International Airport (WIII) |
Arrival
| Time | 2026-05-07 07:59 |
|---|---|
| Airport | Komodo Airport (WATO) |
| Time | Latitude | Longitude | Altitude | Speed | Heading |
|---|---|---|---|---|---|
| 2026-05-07 07:51 | -8.31930 | 119.82342 | 5627 ft | 245 kts | 310° |
| 2026-05-07 07:52 | -8.30689 | 119.81177 | 5642 ft | 244 kts | 328° |
| 2026-05-07 07:52 | -8.29180 | 119.80415 | 5642 ft | 243 kts | 344° |
| 2026-05-07 07:52 | -8.27533 | 119.80104 | 5629 ft | 241 kts | 0° |
| 2026-05-07 07:52 | -8.25879 | 119.80272 | 5625 ft | 239 kts | 17° |
| 2026-05-07 07:53 | -8.24358 | 119.80909 | 5633 ft | 237 kts | 34° |
| 2026-05-07 07:53 | -8.23097 | 119.81959 | 5634 ft | 235 kts | 50° |
| 2026-05-07 07:53 | -8.22197 | 119.83325 | 5621 ft | 234 kts | 67° |
| 2026-05-07 07:53 | -8.21837 | 119.84344 | 5619 ft | 233 kts | 77° |
| 2026-05-07 07:54 | -8.21668 | 119.85960 | 5626 ft | 232 kts | 94° |
| 2026-05-07 07:54 | -8.22042 | 119.87530 | 5549 ft | 231 kts | 123° |
| 2026-05-07 07:54 | -8.23275 | 119.88525 | 5426 ft | 232 kts | 163° |
| 2026-05-07 07:54 | -8.24856 | 119.88538 | 5218 ft | 229 kts | 192° |
| 2026-05-07 07:55 | -8.26371 | 119.88031 | 4882 ft | 230 kts | 200° |
| 2026-05-07 07:55 | -8.27854 | 119.87414 | 4514 ft | 232 kts | 201° |
| 2026-05-07 07:55 | -8.29368 | 119.86834 | 4136 ft | 233 kts | 193° |
| 2026-05-07 07:55 | -8.30972 | 119.86684 | 3740 ft | 233 kts | 176° |
| 2026-05-07 07:56 | -8.32589 | 119.86802 | 3349 ft | 233 kts | 172° |
| 2026-05-07 07:56 | -8.34169 | 119.86981 | 2951 ft | 225 kts | 171° |
| 2026-05-07 07:56 | -8.35692 | 119.87177 | 2586 ft | 217 kts | 170° |
| 2026-05-07 07:56 | -8.37169 | 119.87376 | 2223 ft | 211 kts | 170° |
| 2026-05-07 07:57 | -8.38594 | 119.87569 | 1931 ft | 202 kts | 170° |
| 2026-05-07 07:57 | -8.39939 | 119.87750 | 1662 ft | 189 kts | 170° |
| 2026-05-07 07:57 | -8.41199 | 119.87920 | 1399 ft | 177 kts | 170° |
| 2026-05-07 07:57 | -8.42359 | 119.88075 | 1190 ft | 161 kts | 169° |
| 2026-05-07 07:58 | -8.43441 | 119.88223 | 980 ft | 154 kts | 169° |
| 2026-05-07 07:58 | -8.44488 | 119.88390 | 815 ft | 151 kts | 169° |
| 2026-05-07 07:58 | -8.45528 | 119.88535 | 696 ft | 151 kts | 170° |
| 2026-05-07 07:58 | -8.46565 | 119.88668 | 477 ft | 150 kts | 169° |
| 2026-05-07 07:59 | -8.47599 | 119.88795 | 262 ft | 149 kts | 171° |
| 2026-05-07 07:59 | -8.48534 | 119.88923 | 241 ft | 116 kts | 174° |
| 2026-05-07 07:59 | -8.49086 | 119.88993 | 239 ft | 49 kts | 173° |
| 2026-05-07 07:59 | -8.49228 | 119.89001 | 235 ft | 13 kts | 209° |
| 2026-05-07 08:00 | -8.49246 | 119.88945 | 237 ft | 6 kts | 264° |
| 2026-05-07 08:00 | -8.49241 | 119.88910 | 237 ft | 4 kts | 290° |
| 2026-05-07 08:00 | -8.49221 | 119.88894 | 237 ft | 7 kts | 336° |
| 2026-05-07 08:00 | -8.49152 | 119.88879 | 237 ft | 10 kts | 352° |
| 2026-05-07 08:01 | -8.49088 | 119.88872 | 237 ft | 9 kts | 354° |
| 2026-05-07 08:01 | -8.49024 | 119.88866 | 237 ft | 10 kts | 354° |
| 2026-05-07 08:01 | -8.48950 | 119.88858 | 237 ft | 10 kts | 353° |
| 2026-05-07 08:01 | -8.48888 | 119.88850 | 237 ft | 8 kts | 353° |
| 2026-05-07 08:02 | -8.48866 | 119.88843 | 237 ft | 3 kts | 326° |
| 2026-05-07 08:02 | -8.48860 | 119.88824 | 237 ft | 3 kts | 274° |
| 2026-05-07 08:02 | -8.48862 | 119.88808 | 237 ft | 2 kts | 262° |
| 2026-05-07 08:02 | -8.48864 | 119.88797 | 237 ft | 2 kts | 262° |
| 2026-05-07 08:03 | -8.48864 | 119.88793 | 237 ft | 0 kts | 262° |